Time;durP1;ratioP1;P1;durP2;ratioP2;P2;SDS_P1;SDS_P2;PMS_P1;PMS_P2;Temp;Humidity;BMP_temperature;BMP_pressure;BME280_temperature;BME280_humidity;BME280_pressure;Samples;Min_cycle;Max_cycle;Signal;HPM_P1;HPM_P2
2022/07/09 00:00:22;;;;;;;14.55;6.05;;;;;;;;;;5026194;28;20178;-67
2022/07/09 00:02:48;;;;;;;12.00;5.22;;;;;;;;;;5028125;28;20201;-68
2022/07/09 00:05:13;;;;;;;12.27;5.55;;;;;;;;;;5026791;28;20197;-68
2022/07/09 00:07:39;;;;;;;16.67;6.13;;;;;;;;;;5026211;28;20236;-67
2022/07/09 00:10:05;;;;;;;10.60;5.20;;;;;;;;;;5025884;28;20438;-67
2022/07/09 00:12:30;;;;;;;13.45;6.03;;;;;;;;;;5022335;28;20186;-67
2022/07/09 00:14:56;;;;;;;9.68;5.88;;;;;;;;;;5028341;28;20178;-67
2022/07/09 00:17:21;;;;;;;11.85;6.03;;;;;;;;;;5037182;28;20485;-67
2022/07/09 00:19:46;;;;;;;17.17;6.03;;;;;;;;;;5015072;28;20589;-70
2022/07/09 00:22:12;;;;;;;13.10;6.05;;;;;;;;;;5014559;28;20182;-68
2022/07/09 00:24:37;;;;;;;11.50;5.97;;;;;;;;;;5012776;28;20674;-67
2022/07/09 00:27:03;;;;;;;9.05;5.32;;;;;;;;;;5025548;28;20662;-68
2022/07/09 00:29:28;;;;;;;12.45;5.60;;;;;;;;;;5018096;28;20645;-68
2022/07/09 00:31:53;;;;;;;8.65;5.38;;;;;;;;;;5019801;28;20213;-68
2022/07/09 00:34:19;;;;;;;17.05;6.18;;;;;;;;;;5026173;28;20265;-70
2022/07/09 00:36:44;;;;;;;17.02;6.45;;;;;;;;;;5023432;28;20200;-67
2022/07/09 00:39:09;;;;;;;10.82;5.90;;;;;;;;;;5023955;28;20265;-68
2022/07/09 00:41:35;;;;;;;14.18;5.97;;;;;;;;;;5030250;28;20182;-68
2022/07/09 00:44:00;;;;;;;18.95;6.88;;;;;;;;;;5027873;28;20208;-67
2022/07/09 00:46:26;;;;;;;18.10;6.75;;;;;;;;;;5032942;28;20186;-69
2022/07/09 00:48:51;;;;;;;13.48;6.05;;;;;;;;;;5036106;28;20202;-69
2022/07/09 00:51:18;;;;;;;12.70;7.15;;;;;;;;;;5025534;28;20188;-67
2022/07/09 00:53:46;;;;;;;13.25;6.80;;;;;;;;;;5030469;28;20181;-68
2022/07/09 00:56:12;;;;;;;14.48;6.68;;;;;;;;;;5030980;28;20178;-68
2022/07/09 00:58:38;;;;;;;13.85;7.32;;;;;;;;;;5035802;28;20186;-68
2022/07/09 01:01:03;;;;;;;16.05;7.00;;;;;;;;;;5037765;28;20181;-68
2022/07/09 01:03:29;;;;;;;13.48;7.03;;;;;;;;;;5035307;28;20252;-68
2022/07/09 01:05:56;;;;;;;11.60;6.30;;;;;;;;;;5029583;28;20182;-68
2022/07/09 01:08:22;;;;;;;17.10;7.60;;;;;;;;;;5034336;28;20664;-67
2022/07/09 01:10:50;;;;;;;15.80;6.75;;;;;;;;;;5043480;28;20205;-68
2022/07/09 01:13:15;;;;;;;14.88;7.50;;;;;;;;;;5031546;28;20439;-68
2022/07/09 01:15:40;;;;;;;15.50;7.20;;;;;;;;;;5019168;28;20178;-68
2022/07/09 01:18:10;;;;;;;15.32;7.03;;;;;;;;;;5040982;28;20343;-69
2022/07/09 01:20:35;;;;;;;16.45;7.57;;;;;;;;;;5022998;28;20522;-68
2022/07/09 01:23:00;;;;;;;18.25;8.05;;;;;;;;;;5031232;28;20202;-68
2022/07/09 01:25:41;;;;;;;11.93;8.43;;;;;;;;;;5014604;28;20274;-68
2022/07/09 01:28:07;;;;;;;15.43;8.40;;;;;;;;;;5034161;28;20266;-68
2022/07/09 01:30:34;;;;;;;11.90;8.52;;;;;;;;;;5030092;28;20182;-69
2022/07/09 01:33:00;;;;;;;17.65;9.13;;;;;;;;;;5040449;28;20724;-67
2022/07/09 01:35:26;;;;;;;15.75;8.52;;;;;;;;;;5038234;28;20295;-68
2022/07/09 01:37:52;;;;;;;16.63;9.27;;;;;;;;;;5033722;28;20220;-68
2022/07/09 01:40:18;;;;;;;18.77;9.18;;;;;;;;;;5012566;28;20181;-67
2022/07/09 01:42:43;;;;;;;19.15;8.82;;;;;;;;;;5027362;28;20185;-68
2022/07/09 01:45:09;;;;;;;18.48;9.60;;;;;;;;;;5017829;28;20726;-68
2022/07/09 01:47:34;;;;;;;13.82;8.73;;;;;;;;;;5023695;28;20185;-68
2022/07/09 01:50:00;;;;;;;16.08;8.48;;;;;;;;;;5030156;28;20258;-68
2022/07/09 01:52:25;;;;;;;14.68;8.73;;;;;;;;;;5041226;28;20184;-68
2022/07/09 01:54:51;;;;;;;15.45;7.97;;;;;;;;;;5031539;28;20175;-67
2022/07/09 01:57:16;;;;;;;15.30;8.80;;;;;;;;;;5024053;28;20206;-68
2022/07/09 01:59:41;;;;;;;14.52;8.25;;;;;;;;;;5026733;28;20209;-67
2022/07/09 02:02:07;;;;;;;19.98;8.52;;;;;;;;;;5035315;28;20191;-69
2022/07/09 02:04:32;;;;;;;16.45;8.35;;;;;;;;;;5017538;28;20198;-68
2022/07/09 02:06:58;;;;;;;15.80;8.50;;;;;;;;;;5033389;28;20181;-69
2022/07/09 02:09:23;;;;;;;16.35;8.45;;;;;;;;;;5026540;28;20338;-67
2022/07/09 02:11:49;;;;;;;16.85;8.50;;;;;;;;;;5019040;28;20645;-69
2022/07/09 02:14:15;;;;;;;13.00;8.68;;;;;;;;;;5028794;28;20197;-68
2022/07/09 02:16:41;;;;;;;18.30;9.25;;;;;;;;;;5028500;28;20189;-68
2022/07/09 02:19:06;;;;;;;13.88;9.18;;;;;;;;;;5028424;28;20186;-67
2022/07/09 02:21:32;;;;;;;13.45;8.52;;;;;;;;;;5028978;28;20500;-67
2022/07/09 02:23:58;;;;;;;14.43;8.35;;;;;;;;;;5027442;28;20198;-68
2022/07/09 02:26:29;;;;;;;13.77;8.43;;;;;;;;;;5020077;28;20188;-67
2022/07/09 02:28:55;;;;;;;13.75;8.75;;;;;;;;;;5021610;28;20280;-68
2022/07/09 02:31:20;;;;;;;14.32;8.73;;;;;;;;;;5013266;28;20571;-67
2022/07/09 02:33:46;;;;;;;17.85;8.85;;;;;;;;;;5029211;28;20459;-67
2022/07/09 02:36:11;;;;;;;13.73;7.80;;;;;;;;;;5028558;28;20185;-67
2022/07/09 02:38:37;;;;;;;11.35;8.35;;;;;;;;;;5027857;28;20272;-68
2022/07/09 02:41:02;;;;;;;12.25;8.10;;;;;;;;;;5020957;28;20178;-68
2022/07/09 02:43:28;;;;;;;17.40;8.75;;;;;;;;;;5028285;28;20198;-68
2022/07/09 02:45:55;;;;;;;13.55;8.38;;;;;;;;;;5023541;28;20175;-68
2022/07/09 02:48:21;;;;;;;19.25;8.65;;;;;;;;;;5026481;28;20202;-68
2022/07/09 02:50:46;;;;;;;16.08;8.50;;;;;;;;;;5028341;28;20232;-68
2022/07/09 02:53:12;;;;;;;11.05;8.23;;;;;;;;;;5027888;28;20182;-67
2022/07/09 02:55:37;;;;;;;14.23;8.82;;;;;;;;;;5026416;28;20182;-68
2022/07/09 02:58:02;;;;;;;11.30;8.45;;;;;;;;;;5027022;28;20170;-68
2022/07/09 03:00:28;;;;;;;11.43;8.20;;;;;;;;;;5025936;28;20274;-68
2022/07/09 03:02:53;;;;;;;14.20;8.75;;;;;;;;;;5033747;28;20220;-68
2022/07/09 03:05:19;;;;;;;12.55;8.18;;;;;;;;;;5028968;28;20640;-68
2022/07/09 03:07:44;;;;;;;14.02;7.93;;;;;;;;;;5016758;28;20661;-67
2022/07/09 03:10:09;;;;;;;12.73;7.90;;;;;;;;;;5015735;28;20638;-68
2022/07/09 03:12:35;;;;;;;13.82;7.70;;;;;;;;;;5023502;28;20656;-67
2022/07/09 03:15:00;;;;;;;13.18;8.35;;;;;;;;;;5027252;28;20182;-68
2022/07/09 03:17:26;;;;;;;9.90;7.32;;;;;;;;;;5022615;28;20564;-68
2022/07/09 03:19:52;;;;;;;10.82;7.10;;;;;;;;;;5017155;28;20575;-66
2022/07/09 03:22:17;;;;;;;16.30;8.20;;;;;;;;;;5022364;28;20185;-67
2022/07/09 03:24:43;;;;;;;13.65;7.90;;;;;;;;;;5027561;28;20233;-68
2022/07/09 03:27:08;;;;;;;10.75;7.07;;;;;;;;;;5027693;28;20174;-67
2022/07/09 03:29:33;;;;;;;13.23;7.00;;;;;;;;;;5026827;28;20185;-68
2022/07/09 03:31:59;;;;;;;11.90;6.53;;;;;;;;;;5027649;28;20585;-69
2022/07/09 03:34:24;;;;;;;11.93;6.57;;;;;;;;;;5020928;28;20205;-68
2022/07/09 03:36:50;;;;;;;7.68;6.20;;;;;;;;;;5026631;28;20186;-68
2022/07/09 03:39:15;;;;;;;8.27;5.85;;;;;;;;;;5020268;28;20208;-67
2022/07/09 03:41:40;;;;;;;13.95;6.15;;;;;;;;;;5016826;28;20636;-68
2022/07/09 03:44:06;;;;;;;11.25;6.38;;;;;;;;;;5026864;28;20201;-68
2022/07/09 03:46:31;;;;;;;11.55;6.03;;;;;;;;;;5027844;28;20224;-68
2022/07/09 03:48:56;;;;;;;9.05;6.38;;;;;;;;;;5035394;28;20261;-68
2022/07/09 03:51:22;;;;;;;9.98;6.05;;;;;;;;;;5024256;28;20178;-68
2022/07/09 03:53:47;;;;;;;11.70;6.43;;;;;;;;;;5026543;28;20174;-68
2022/07/09 03:56:13;;;;;;;10.27;6.90;;;;;;;;;;5022005;28;20222;-68
2022/07/09 03:58:38;;;;;;;8.60;5.90;;;;;;;;;;5032913;28;20193;-67
2022/07/09 04:01:03;;;;;;;10.27;5.90;;;;;;;;;;5038000;28;20643;-68
2022/07/09 04:03:29;;;;;;;9.68;5.95;;;;;;;;;;5034574;28;20205;-68
2022/07/09 04:05:54;;;;;;;10.32;6.00;;;;;;;;;;5031741;28;20680;-67
2022/07/09 04:08:19;;;;;;;8.95;6.15;;;;;;;;;;5042217;28;20650;-67
2022/07/09 04:10:45;;;;;;;9.40;6.10;;;;;;;;;;5031637;28;20198;-67
2022/07/09 04:13:10;;;;;;;9.10;6.80;;;;;;;;;;5032596;28;20186;-68
2022/07/09 04:15:35;;;;;;;9.88;6.45;;;;;;;;;;5028485;28;20264;-68
2022/07/09 04:18:01;;;;;;;7.20;5.38;;;;;;;;;;5033068;28;20193;-68
2022/07/09 04:20:26;;;;;;;10.27;6.32;;;;;;;;;;5024740;28;20220;-68
2022/07/09 04:22:52;;;;;;;7.55;5.70;;;;;;;;;;5032921;28;20243;-68
2022/07/09 04:25:17;;;;;;;12.70;6.53;;;;;;;;;;5032871;28;20638;-67
2022/07/09 04:27:43;;;;;;;9.13;5.93;;;;;;;;;;5036027;28;20653;-68
2022/07/09 04:30:10;;;;;;;10.45;6.00;;;;;;;;;;5027281;28;20197;-67
2022/07/09 04:32:35;;;;;;;9.98;6.40;;;;;;;;;;5038172;28;20234;-68
2022/07/09 04:35:01;;;;;;;8.68;6.28;;;;;;;;;;5031208;28;20200;-67
2022/07/09 04:37:26;;;;;;;9.90;6.10;;;;;;;;;;5030695;28;20657;-68
2022/07/09 04:39:51;;;;;;;11.88;6.88;;;;;;;;;;5042784;28;20528;-68
2022/07/09 04:42:17;;;;;;;12.38;6.93;;;;;;;;;;5022666;28;20562;-68
2022/07/09 04:44:42;;;;;;;12.77;6.82;;;;;;;;;;5043634;28;20197;-68
2022/07/09 04:47:09;;;;;;;10.50;6.97;;;;;;;;;;5028112;28;20182;-68
2022/07/09 04:49:34;;;;;;;9.88;6.80;;;;;;;;;;5029956;28;20703;-69
2022/07/09 04:52:00;;;;;;;11.27;6.70;;;;;;;;;;5041322;28;20209;-67
2022/07/09 04:54:25;;;;;;;12.00;6.50;;;;;;;;;;5041456;28;20178;-68
2022/07/09 04:56:50;;;;;;;12.63;6.78;;;;;;;;;;5040837;28;20267;-67
2022/07/09 04:59:16;;;;;;;12.98;6.32;;;;;;;;;;5047679;28;20566;-67
2022/07/09 05:01:42;;;;;;;12.48;6.85;;;;;;;;;;5045097;28;20194;-68
2022/07/09 05:04:07;;;;;;;9.85;6.43;;;;;;;;;;5042938;28;20186;-67
2022/07/09 05:06:33;;;;;;;9.27;6.35;;;;;;;;;;5029730;28;20529;-68
2022/07/09 05:08:58;;;;;;;11.80;6.65;;;;;;;;;;5040611;28;20191;-67
2022/07/09 05:11:24;;;;;;;8.43;6.10;;;;;;;;;;5039513;28;20182;-67
2022/07/09 05:13:49;;;;;;;10.98;6.75;;;;;;;;;;5049000;28;20598;-68
2022/07/09 05:16:14;;;;;;;10.95;6.80;;;;;;;;;;5043250;28;20265;-67
2022/07/09 05:18:40;;;;;;;11.35;6.50;;;;;;;;;;5048079;28;20260;-68
2022/07/09 05:21:05;;;;;;;12.80;6.72;;;;;;;;;;5042357;28;20192;-68
2022/07/09 05:23:31;;;;;;;12.55;7.05;;;;;;;;;;5039745;28;20221;-67
2022/07/09 05:25:56;;;;;;;7.80;6.35;;;;;;;;;;5028682;28;20628;-68
2022/07/09 05:28:21;;;;;;;12.05;6.60;;;;;;;;;;5039374;28;20283;-68
2022/07/09 05:30:47;;;;;;;9.50;6.43;;;;;;;;;;5030590;28;20201;-66
2022/07/09 05:33:12;;;;;;;12.00;7.65;;;;;;;;;;5028392;28;20193;-66
2022/07/09 05:35:38;;;;;;;10.95;7.30;;;;;;;;;;5028417;28;20180;-66
2022/07/09 05:38:04;;;;;;;11.43;6.55;;;;;;;;;;5041602;28;20280;-68
2022/07/09 05:40:29;;;;;;;8.90;6.18;;;;;;;;;;5041812;28;20463;-68
2022/07/09 05:42:55;;;;;;;11.52;7.30;;;;;;;;;;5045354;28;20177;-67
2022/07/09 05:45:20;;;;;;;9.50;7.57;;;;;;;;;;5044783;28;20663;-68
2022/07/09 05:47:46;;;;;;;12.70;7.45;;;;;;;;;;5043916;28;20215;-68
2022/07/09 05:50:11;;;;;;;10.05;6.88;;;;;;;;;;5033566;28;20792;-68
2022/07/09 05:52:37;;;;;;;10.82;6.85;;;;;;;;;;5037196;28;20538;-68
2022/07/09 05:55:03;;;;;;;9.20;6.38;;;;;;;;;;5039111;28;20182;-68
2022/07/09 05:57:29;;;;;;;11.00;7.40;;;;;;;;;;5041019;28;20212;-68
2022/07/09 05:59:55;;;;;;;10.38;7.07;;;;;;;;;;5044483;28;20213;-68
2022/07/09 06:02:21;;;;;;;10.85;7.15;;;;;;;;;;5030006;28;20201;-67
2022/07/09 06:04:46;;;;;;;9.73;6.60;;;;;;;;;;5042336;28;20209;-68
2022/07/09 06:07:11;;;;;;;9.18;6.70;;;;;;;;;;5044324;28;20785;-68
2022/07/09 06:09:37;;;;;;;11.20;6.57;;;;;;;;;;5038598;28;20182;-68
2022/07/09 06:12:03;;;;;;;10.15;6.78;;;;;;;;;;5043413;28;20177;-68
2022/07/09 06:14:28;;;;;;;8.70;6.10;;;;;;;;;;5042661;28;20273;-66
2022/07/09 06:16:55;;;;;;;9.25;5.88;;;;;;;;;;5034945;28;20182;-67
2022/07/09 06:19:20;;;;;;;7.97;6.30;;;;;;;;;;5038927;28;20317;-67
2022/07/09 06:21:46;;;;;;;8.23;5.95;;;;;;;;;;5031559;28;20272;-67
2022/07/09 06:24:12;;;;;;;9.75;6.35;;;;;;;;;;5036275;28;20190;-68
2022/07/09 06:26:37;;;;;;;9.75;5.95;;;;;;;;;;5033570;28;20610;-68
2022/07/09 06:29:03;;;;;;;9.65;6.22;;;;;;;;;;5034879;28;20308;-68
2022/07/09 06:31:28;;;;;;;9.50;6.55;;;;;;;;;;5030955;28;20206;-68
2022/07/09 06:33:54;;;;;;;9.85;6.32;;;;;;;;;;5023121;28;20174;-68
2022/07/09 06:36:19;;;;;;;9.15;5.88;;;;;;;;;;5027789;28;20550;-67
2022/07/09 06:41:28;;;;;;;10.15;6.10;;;;;;;;;;5018148;28;20239;-69
2022/07/09 06:43:54;;;;;;;10.27;6.43;;;;;;;;;;5044239;28;20213;-67
2022/07/09 06:46:19;;;;;;;12.15;6.15;;;;;;;;;;5032036;28;20269;-69
2022/07/09 06:48:44;;;;;;;10.65;6.18;;;;;;;;;;5040436;28;20269;-68
2022/07/09 06:51:10;;;;;;;8.48;6.90;;;;;;;;;;5039201;28;20190;-69
2022/07/09 06:53:35;;;;;;;9.80;5.95;;;;;;;;;;5039066;28;20262;-68
2022/07/09 06:56:01;;;;;;;8.57;5.55;;;;;;;;;;5035978;28;20186;-68
2022/07/09 06:58:26;;;;;;;7.38;5.43;;;;;;;;;;5034226;28;20181;-68
2022/07/09 07:00:51;;;;;;;8.75;5.28;;;;;;;;;;5029260;28;20192;-67
2022/07/09 07:03:17;;;;;;;10.15;5.22;;;;;;;;;;5039512;28;20716;-68
2022/07/09 07:05:42;;;;;;;5.65;4.75;;;;;;;;;;5022986;28;20174;-68
2022/07/09 07:08:07;;;;;;;5.53;4.60;;;;;;;;;;5023590;28;20182;-67
2022/07/09 07:10:33;;;;;;;8.52;4.20;;;;;;;;;;5044421;28;20184;-69
2022/07/09 07:12:58;;;;;;;8.45;4.28;;;;;;;;;;5030476;28;20185;-67
2022/07/09 07:15:24;;;;;;;5.80;4.22;;;;;;;;;;5020065;28;20181;-68
2022/07/09 07:17:49;;;;;;;7.32;4.38;;;;;;;;;;5016943;28;20182;-69
2022/07/09 07:20:17;;;;;;;9.93;4.47;;;;;;;;;;5037197;28;20538;-67
2022/07/09 07:22:42;;;;;;;6.95;3.15;;;;;;;;;;5025552;28;20213;-67
2022/07/09 07:25:08;;;;;;;8.77;3.25;;;;;;;;;;5035642;28;20205;-67
2022/07/09 07:27:34;;;;;;;4.15;3.00;;;;;;;;;;5035319;28;20229;-69
2022/07/09 07:29:59;;;;;;;5.20;2.97;;;;;;;;;;5036213;28;20570;-67
2022/07/09 07:32:25;;;;;;;5.13;2.85;;;;;;;;;;5043722;28;20201;-68
2022/07/09 07:34:50;;;;;;;4.82;2.50;;;;;;;;;;5042859;28;20256;-67
2022/07/09 07:37:15;;;;;;;5.38;2.42;;;;;;;;;;5035687;28;20171;-66
2022/07/09 07:39:41;;;;;;;2.50;2.10;;;;;;;;;;5044024;28;20238;-68
2022/07/09 07:42:07;;;;;;;4.35;1.95;;;;;;;;;;5036841;28;20584;-70
2022/07/09 07:44:32;;;;;;;4.15;2.08;;;;;;;;;;5039790;28;20225;-67
2022/07/09 07:47:07;;;;;;;3.19;2.01;;;;;;;;;;4683632;28;10002773;-67
2022/07/09 07:49:33;;;;;;;4.78;2.00;;;;;;;;;;5031352;28;20174;-68
2022/07/09 07:51:58;;;;;;;2.97;2.10;;;;;;;;;;5035548;28;20193;-67
2022/07/09 07:54:24;;;;;;;4.25;2.80;;;;;;;;;;5030853;28;20177;-67
2022/07/09 07:56:50;;;;;;;4.00;2.05;;;;;;;;;;5036089;28;20706;-67
2022/07/09 07:59:16;;;;;;;3.97;2.22;;;;;;;;;;5034957;28;20228;-68
2022/07/09 08:01:41;;;;;;;6.53;2.58;;;;;;;;;;5030938;28;20249;-65
2022/07/09 08:04:06;;;;;;;3.20;2.38;;;;;;;;;;5019011;28;20213;-67
2022/07/09 08:06:32;;;;;;;3.47;2.20;;;;;;;;;;5015148;28;20179;-68
2022/07/09 08:08:57;;;;;;;7.88;2.55;;;;;;;;;;5022856;28;20205;-68
2022/07/09 08:11:22;;;;;;;4.78;2.63;;;;;;;;;;5019303;28;20763;-68
2022/07/09 08:13:48;;;;;;;3.45;1.67;;;;;;;;;;5023534;28;20189;-68
2022/07/09 08:16:14;;;;;;;2.28;1.20;;;;;;;;;;5025160;28;20178;-70
2022/07/09 08:18:39;;;;;;;2.72;1.38;;;;;;;;;;5024241;28;20554;-67
2022/07/09 08:21:04;;;;;;;1.88;1.45;;;;;;;;;;5019269;28;20220;-67
2022/07/09 08:23:30;;;;;;;2.92;1.60;;;;;;;;;;5028536;28;20214;-67
2022/07/09 08:25:55;;;;;;;2.88;1.77;;;;;;;;;;5023725;28;20879;-67
2022/07/09 08:28:21;;;;;;;2.55;1.65;;;;;;;;;;5022291;28;20226;-67
2022/07/09 08:30:46;;;;;;;3.13;1.50;;;;;;;;;;5022371;28;20177;-67
2022/07/09 08:33:11;;;;;;;3.20;2.15;;;;;;;;;;5021704;28;20193;-68
2022/07/09 08:35:37;;;;;;;5.32;1.70;;;;;;;;;;4673682;28;10000317;-68
2022/07/09 08:38:02;;;;;;;5.07;1.92;;;;;;;;;;5018073;28;20217;-68
2022/07/09 08:40:28;;;;;;;3.25;1.67;;;;;;;;;;5022928;28;20283;-67
2022/07/09 08:42:54;;;;;;;4.30;1.98;;;;;;;;;;5028650;28;20194;-68
2022/07/09 08:45:21;;;;;;;3.05;2.33;;;;;;;;;;5028134;28;20198;-67
2022/07/09 08:47:46;;;;;;;2.72;2.03;;;;;;;;;;5028874;28;20517;-67
2022/07/09 08:50:13;;;;;;;4.03;2.50;;;;;;;;;;5035222;28;20175;-67
2022/07/09 08:52:39;;;;;;;4.80;2.70;;;;;;;;;;5037487;28;20185;-67
2022/07/09 08:55:07;;;;;;;5.63;2.80;;;;;;;;;;5039712;28;20192;-65
2022/07/09 08:57:33;;;;;;;6.38;2.42;;;;;;;;;;5037725;28;20180;-68
2022/07/09 08:59:59;;;;;;;5.07;2.20;;;;;;;;;;5031764;28;20618;-66
2022/07/09 09:02:24;;;;;;;3.45;2.50;;;;;;;;;;5027552;28;20224;-68
2022/07/09 09:04:50;;;;;;;2.88;2.17;;;;;;;;;;5031308;28;20205;-67
2022/07/09 09:07:17;;;;;;;4.25;2.60;;;;;;;;;;5036200;28;20178;-67
2022/07/09 09:09:43;;;;;;;7.15;2.35;;;;;;;;;;5030427;28;20252;-68
2022/07/09 09:12:09;;;;;;;2.28;1.63;;;;;;;;;;5030360;28;20193;-67
2022/07/09 09:14:35;;;;;;;2.53;1.80;;;;;;;;;;5014860;28;20545;-67
2022/07/09 09:17:14;;;;;;;3.35;1.90;;;;;;;;;;5038324;28;20182;-66
2022/07/09 09:19:40;;;;;;;2.08;1.67;;;;;;;;;;5036408;28;20182;-70
2022/07/09 09:22:06;;;;;;;5.22;1.50;;;;;;;;;;5036351;28;20177;-68
2022/07/09 09:24:34;;;;;;;1.42;1.30;;;;;;;;;;5033883;28;20298;-68
2022/07/09 09:26:59;;;;;;;2.35;1.70;;;;;;;;;;5034008;28;20239;-67
2022/07/09 09:29:26;;;;;;;5.00;1.55;;;;;;;;;;5026437;28;20638;-68
2022/07/09 09:31:52;;;;;;;2.70;1.55;;;;;;;;;;5033564;28;20236;-69
2022/07/09 09:34:19;;;;;;;3.10;1.85;;;;;;;;;;5030503;28;20174;-68
2022/07/09 09:36:46;;;;;;;2.63;1.25;;;;;;;;;;5033179;28;20194;-68
2022/07/09 09:39:14;;;;;;;2.10;1.83;;;;;;;;;;5039807;28;20196;-68
2022/07/09 09:41:42;;;;;;;2.35;1.88;;;;;;;;;;5034605;28;20248;-66
2022/07/09 09:44:13;;;;;;;4.13;1.73;;;;;;;;;;5044739;28;20201;-67
2022/07/09 09:46:40;;;;;;;5.38;2.05;;;;;;;;;;5043981;28;20181;-68
2022/07/09 09:49:10;;;;;;;3.53;1.65;;;;;;;;;;5041880;28;20188;-68
2022/07/09 09:51:41;;;;;;;3.25;1.58;;;;;;;;;;5040226;28;20704;-67
2022/07/09 09:54:08;;;;;;;6.15;2.88;;;;;;;;;;5043338;28;20165;-68
2022/07/09 09:56:34;;;;;;;2.05;1.92;;;;;;;;;;5042421;28;20185;-68
2022/07/09 09:59:00;;;;;;;3.30;1.70;;;;;;;;;;5042968;28;20174;-67
2022/07/09 10:01:27;;;;;;;2.33;1.75;;;;;;;;;;5045967;28;20177;-68
2022/07/09 10:03:53;;;;;;;3.17;1.58;;;;;;;;;;5036912;28;20870;-68
2022/07/09 10:06:19;;;;;;;4.40;2.20;;;;;;;;;;5043566;28;20169;-67
2022/07/09 10:08:44;;;;;;;2.25;1.50;;;;;;;;;;5037105;28;20636;-69
2022/07/09 10:11:09;;;;;;;3.40;1.83;;;;;;;;;;5029061;28;20190;-69
2022/07/09 10:13:37;;;;;;;3.20;1.98;;;;;;;;;;5031855;28;20197;-67
2022/07/09 10:16:03;;;;;;;2.63;1.40;;;;;;;;;;5040130;28;20189;-67
2022/07/09 10:18:28;;;;;;;2.08;1.50;;;;;;;;;;5044506;28;20665;-66
2022/07/09 10:20:57;;;;;;;4.20;1.90;;;;;;;;;;5043405;28;20319;-68
2022/07/09 10:23:24;;;;;;;3.28;1.30;;;;;;;;;;5037804;28;20296;-68
2022/07/09 10:25:52;;;;;;;1.90;1.23;;;;;;;;;;5041079;28;20276;-70
2022/07/09 10:28:19;;;;;;;5.30;1.30;;;;;;;;;;5038467;28;20225;-71
2022/07/09 10:30:46;;;;;;;1.73;1.05;;;;;;;;;;5041793;28;20563;-66
2022/07/09 10:33:22;;;;;;;2.38;1.08;;;;;;;;;;5040772;28;20178;-66
2022/07/09 10:35:52;;;;;;;1.60;1.05;;;;;;;;;;5036609;28;20185;-68
2022/07/09 10:38:19;;;;;;;1.88;1.23;;;;;;;;;;5032292;28;20778;-66
2022/07/09 10:40:46;;;;;;;3.13;1.30;;;;;;;;;;5034629;28;20198;-69
2022/07/09 10:43:13;;;;;;;4.22;1.30;;;;;;;;;;5028749;28;20792;-68
2022/07/09 10:45:41;;;;;;;1.27;1.10;;;;;;;;;;5029468;28;20182;-66
2022/07/09 10:48:09;;;;;;;2.22;1.20;;;;;;;;;;5029394;28;20209;-68
2022/07/09 10:50:38;;;;;;;1.40;1.20;;;;;;;;;;5035180;28;20190;-67
2022/07/09 10:53:03;;;;;;;4.82;1.45;;;;;;;;;;5030791;28;20178;-67
2022/07/09 10:55:30;;;;;;;1.75;0.60;;;;;;;;;;5027219;28;20216;-67
2022/07/09 10:57:55;;;;;;;1.90;0.90;;;;;;;;;;5032104;28;20192;-69
2022/07/09 11:00:23;;;;;;;2.20;0.82;;;;;;;;;;5040999;28;20183;-69
2022/07/09 11:03:03;;;;;;;1.40;1.00;;;;;;;;;;5039989;28;20220;-69
2022/07/09 11:05:29;;;;;;;3.50;0.93;;;;;;;;;;5042581;28;20169;-68
2022/07/09 11:08:03;;;;;;;1.92;1.00;;;;;;;;;;5040024;28;20181;-67
2022/07/09 11:10:30;;;;;;;2.08;1.10;;;;;;;;;;5044060;28;20178;-73
2022/07/09 11:12:58;;;;;;;1.15;0.80;;;;;;;;;;5038672;28;20264;-66
2022/07/09 11:15:26;;;;;;;0.85;0.80;;;;;;;;;;5037202;28;20219;-67
2022/07/09 11:18:09;;;;;;;1.75;0.85;;;;;;;;;;5042086;28;20173;-70
2022/07/09 11:20:38;;;;;;;1.65;0.90;;;;;;;;;;5037341;28;20315;-66
2022/07/09 11:23:04;;;;;;;2.15;0.77;;;;;;;;;;5040254;28;20185;-66
2022/07/09 11:25:29;;;;;;;2.08;0.90;;;;;;;;;;5040429;28;20545;-68
2022/07/09 11:27:56;;;;;;;1.60;0.82;;;;;;;;;;5040343;28;20758;-68
2022/07/09 11:30:22;;;;;;;3.88;0.90;;;;;;;;;;5040565;28;20224;-66
2022/07/09 11:32:48;;;;;;;1.88;1.15;;;;;;;;;;5041167;28;20716;-67
2022/07/09 11:35:32;;;;;;;3.13;1.30;;;;;;;;;;5037471;28;20170;-66
2022/07/09 11:38:00;;;;;;;5.20;1.30;;;;;;;;;;5038355;28;20185;-68
2022/07/09 11:40:26;;;;;;;3.17;0.90;;;;;;;;;;5025788;28;20188;-70
2022/07/09 11:42:52;;;;;;;1.73;0.70;;;;;;;;;;5026203;28;20178;-75
2022/07/09 11:45:26;;;;;;;2.47;1.00;;;;;;;;;;5027658;28;20205;-72
2022/07/09 11:48:05;;;;;;;3.03;0.98;;;;;;;;;;5033509;28;20556;-69
2022/07/09 11:50:32;;;;;;;5.75;0.90;;;;;;;;;;5025674;28;20205;-75
2022/07/09 11:52:58;;;;;;;1.63;0.75;;;;;;;;;;5025678;28;20178;-72
2022/07/09 11:55:31;;;;;;;1.58;0.90;;;;;;;;;;5027222;28;20166;-68
2022/07/09 11:57:58;;;;;;;2.95;0.95;;;;;;;;;;5029895;28;20204;-68
2022/07/09 12:00:27;;;;;;;1.75;0.90;;;;;;;;;;5027695;28;21146;-77
2022/07/09 12:02:54;;;;;;;1.13;0.75;;;;;;;;;;5032843;28;20280;-71
2022/07/09 12:05:30;;;;;;;1.90;0.60;;;;;;;;;;5034119;28;20308;-68
2022/07/09 12:07:56;;;;;;;2.53;0.77;;;;;;;;;;5034491;28;20217;-72
2022/07/09 12:10:26;;;;;;;2.03;0.98;;;;;;;;;;5022253;28;20206;-71
2022/07/09 12:12:51;;;;;;;4.90;0.93;;;;;;;;;;5023348;28;20205;-66
2022/07/09 12:15:17;;;;;;;2.28;0.77;;;;;;;;;;5025319;28;20648;-75
2022/07/09 12:17:42;;;;;;;3.47;1.15;;;;;;;;;;5025488;28;20269;-68
2022/07/09 12:20:09;;;;;;;2.63;0.70;;;;;;;;;;5036790;28;20277;-67
2022/07/09 12:22:35;;;;;;;1.38;0.70;;;;;;;;;;5036379;28;20190;-71
2022/07/09 12:25:00;;;;;;;1.52;1.00;;;;;;;;;;5043567;28;20370;-68
2022/07/09 12:27:25;;;;;;;2.05;0.70;;;;;;;;;;5044127;28;20181;-68
2022/07/09 12:29:51;;;;;;;2.40;0.80;;;;;;;;;;5042080;28;20239;-67
2022/07/09 12:32:16;;;;;;;4.28;0.70;;;;;;;;;;5044296;28;20559;-69
2022/07/09 12:34:41;;;;;;;2.13;0.60;;;;;;;;;;5036183;28;20550;-72
2022/07/09 12:37:07;;;;;;;1.80;0.70;;;;;;;;;;5033363;28;20182;-70
2022/07/09 12:39:32;;;;;;;1.52;0.55;;;;;;;;;;5035180;28;20182;-72
2022/07/09 12:41:58;;;;;;;1.27;0.70;;;;;;;;;;5039011;28;20178;-70
2022/07/09 12:44:23;;;;;;;1.77;0.80;;;;;;;;;;5033226;28;20205;-67
2022/07/09 12:46:50;;;;;;;5.18;1.00;;;;;;;;;;5038115;28;20187;-66
2022/07/09 12:49:16;;;;;;;4.65;0.95;;;;;;;;;;5036250;28;20182;-67
2022/07/09 12:51:41;;;;;;;2.30;0.60;;;;;;;;;;5043271;28;20198;-67
2022/07/09 12:54:06;;;;;;;1.27;0.77;;;;;;;;;;5040637;28;20184;-69
2022/07/09 12:56:32;;;;;;;3.60;0.90;;;;;;;;;;5044588;28;20221;-72
2022/07/09 12:58:57;;;;;;;1.75;1.00;;;;;;;;;;5035728;28;20197;-68
2022/07/09 13:01:22;;;;;;;3.17;0.80;;;;;;;;;;5038630;28;20233;-70
2022/07/09 13:03:48;;;;;;;1.95;0.80;;;;;;;;;;5031892;28;20274;-68
2022/07/09 13:06:31;;;;;;;3.05;1.00;;;;;;;;;;5042375;28;20262;-69
2022/07/09 13:08:58;;;;;;;3.17;0.88;;;;;;;;;;5041283;28;20588;-66
2022/07/09 13:11:23;;;;;;;4.15;0.90;;;;;;;;;;5036239;28;20208;-66
2022/07/09 13:13:49;;;;;;;3.30;0.80;;;;;;;;;;5037988;28;20214;-69
2022/07/09 13:16:14;;;;;;;4.03;0.90;;;;;;;;;;5034982;28;20186;-68
2022/07/09 13:18:40;;;;;;;4.10;1.13;;;;;;;;;;5032790;28;20229;-67
2022/07/09 13:21:05;;;;;;;2.80;0.90;;;;;;;;;;5038779;28;20217;-70
2022/07/09 13:23:31;;;;;;;4.32;1.10;;;;;;;;;;5041008;28;20206;-72
2022/07/09 13:25:57;;;;;;;3.20;1.15;;;;;;;;;;5039993;28;20185;-69
2022/07/09 13:28:22;;;;;;;4.65;1.17;;;;;;;;;;5042331;28;20229;-69
2022/07/09 13:30:48;;;;;;;3.40;1.27;;;;;;;;;;5041986;28;20580;-69
2022/07/09 13:33:13;;;;;;;4.03;1.45;;;;;;;;;;5039061;28;20255;-74
2022/07/09 13:35:39;;;;;;;5.90;1.40;;;;;;;;;;5044015;28;20185;-70
2022/07/09 13:38:04;;;;;;;6.03;1.30;;;;;;;;;;5041089;28;20189;-66
2022/07/09 13:40:29;;;;;;;5.30;1.40;;;;;;;;;;5043898;28;20531;-71
2022/07/09 13:42:55;;;;;;;2.50;1.05;;;;;;;;;;5044093;28;20204;-75
2022/07/09 13:45:20;;;;;;;6.22;1.42;;;;;;;;;;5041307;28;20193;-69
2022/07/09 13:47:46;;;;;;;3.92;1.45;;;;;;;;;;5043942;28;20727;-71
2022/07/09 13:50:11;;;;;;;3.83;0.95;;;;;;;;;;5046098;28;20261;-71
2022/07/09 13:52:36;;;;;;;7.03;1.33;;;;;;;;;;5043720;28;20206;-74
2022/07/09 13:55:02;;;;;;;3.72;1.30;;;;;;;;;;5043022;28;20177;-71
2022/07/09 13:57:27;;;;;;;4.57;1.20;;;;;;;;;;5041576;28;20698;-75
2022/07/09 13:59:53;;;;;;;5.30;1.70;;;;;;;;;;5044346;28;20384;-68
2022/07/09 14:02:18;;;;;;;4.88;1.35;;;;;;;;;;5036679;28;20650;-69
2022/07/09 14:04:43;;;;;;;4.55;1.05;;;;;;;;;;5040750;28;20194;-76
2022/07/09 14:07:09;;;;;;;4.60;1.10;;;;;;;;;;5043365;28;20213;-72
2022/07/09 14:09:34;;;;;;;4.93;1.40;;;;;;;;;;5037283;28;20189;-70
2022/07/09 14:11:59;;;;;;;3.30;1.10;;;;;;;;;;5039751;28;20178;-67
2022/07/09 14:14:25;;;;;;;5.15;1.13;;;;;;;;;;5039421;28;20524;-73
2022/07/09 14:16:50;;;;;;;2.22;1.35;;;;;;;;;;5040588;28;20191;-71
2022/07/09 14:19:16;;;;;;;4.43;1.20;;;;;;;;;;5044036;28;20192;-73
2022/07/09 14:21:41;;;;;;;5.85;1.33;;;;;;;;;;5041053;28;20683;-73
2022/07/09 14:24:07;;;;;;;5.80;1.35;;;;;;;;;;5042080;28;20190;-76
2022/07/09 14:26:33;;;;;;;4.18;1.20;;;;;;;;;;5041130;28;20606;-71
2022/07/09 14:28:58;;;;;;;2.90;1.08;;;;;;;;;;5041543;28;20328;-67
2022/07/09 14:31:24;;;;;;;3.53;1.20;;;;;;;;;;5042483;28;20206;-79
2022/07/09 14:33:50;;;;;;;3.10;1.45;;;;;;;;;;5045040;28;20165;-70